sensor_id;sensor_type;location;lat;lon;timestamp;P1;durP1;ratioP1;P2;durP2;ratioP2
82779;SDS011;72511;45.120;20.720;2024-03-23T00:51:46;56.50;;;24.15;;
82779;SDS011;72511;45.120;20.720;2024-03-23T01:01:48;42.60;;;22.02;;
82779;SDS011;72511;45.120;20.720;2024-03-23T01:11:49;62.45;;;24.80;;
82779;SDS011;72511;45.120;20.720;2024-03-23T01:21:51;50.13;;;23.13;;
82779;SDS011;72511;45.120;20.720;2024-03-23T01:31:52;52.78;;;23.00;;
82779;SDS011;72511;45.120;20.720;2024-03-23T01:41:53;41.65;;;19.13;;
82779;SDS011;72511;45.120;20.720;2024-03-23T01:51:55;37.58;;;18.58;;
82779;SDS011;72511;45.120;20.720;2024-03-23T02:01:56;40.13;;;20.55;;
82779;SDS011;72511;45.120;20.720;2024-03-23T02:11:58;49.30;;;25.60;;
82779;SDS011;72511;45.120;20.720;2024-03-23T02:22:00;48.65;;;25.60;;
82779;SDS011;72511;45.120;20.720;2024-03-23T02:32:01;51.92;;;25.08;;
82779;SDS011;72511;45.120;20.720;2024-03-23T02:42:03;59.83;;;28.85;;
82779;SDS011;72511;45.120;20.720;2024-03-23T02:52:04;51.13;;;24.23;;
82779;SDS011;72511;45.120;20.720;2024-03-23T03:02:05;51.03;;;24.20;;
82779;SDS011;72511;45.120;20.720;2024-03-23T03:12:07;47.40;;;25.17;;
82779;SDS011;72511;45.120;20.720;2024-03-23T03:22:09;48.42;;;24.23;;
82779;SDS011;72511;45.120;20.720;2024-03-23T03:32:10;44.58;;;22.95;;
82779;SDS011;72511;45.120;20.720;2024-03-23T03:42:12;41.42;;;20.38;;
82779;SDS011;72511;45.120;20.720;2024-03-23T03:52:14;38.40;;;18.85;;
82779;SDS011;72511;45.120;20.720;2024-03-23T04:02:15;37.78;;;20.45;;
82779;SDS011;72511;45.120;20.720;2024-03-23T04:12:16;43.85;;;20.77;;
82779;SDS011;72511;45.120;20.720;2024-03-23T04:22:17;36.65;;;19.98;;
82779;SDS011;72511;45.120;20.720;2024-03-23T04:32:19;29.67;;;17.92;;
82779;SDS011;72511;45.120;20.720;2024-03-23T04:42:20;35.50;;;19.90;;
82779;SDS011;72511;45.120;20.720;2024-03-23T04:52:21;27.77;;;15.68;;
82779;SDS011;72511;45.120;20.720;2024-03-23T05:02:23;47.80;;;22.63;;
82779;SDS011;72511;45.120;20.720;2024-03-23T05:12:26;52.42;;;23.70;;
82779;SDS011;72511;45.120;20.720;2024-03-23T05:22:28;40.63;;;21.00;;
82779;SDS011;72511;45.120;20.720;2024-03-23T05:32:29;31.80;;;16.45;;
82779;SDS011;72511;45.120;20.720;2024-03-23T05:42:30;34.72;;;16.40;;
82779;SDS011;72511;45.120;20.720;2024-03-23T05:52:32;27.65;;;15.90;;
82779;SDS011;72511;45.120;20.720;2024-03-23T06:02:33;25.70;;;14.75;;
82779;SDS011;72511;45.120;20.720;2024-03-23T06:12:35;41.53;;;21.88;;
82779;SDS011;72511;45.120;20.720;2024-03-23T06:22:36;42.67;;;20.63;;
82779;SDS011;72511;45.120;20.720;2024-03-23T06:32:37;26.92;;;18.05;;
82779;SDS011;72511;45.120;20.720;2024-03-23T06:42:39;22.23;;;12.65;;
82779;SDS011;72511;45.120;20.720;2024-03-23T06:52:40;17.73;;;10.13;;
82779;SDS011;72511;45.120;20.720;2024-03-23T07:02:42;56.35;;;26.40;;
82779;SDS011;72511;45.120;20.720;2024-03-23T07:12:45;25.95;;;13.70;;
82779;SDS011;72511;45.120;20.720;2024-03-23T07:22:46;17.80;;;10.75;;
82779;SDS011;72511;45.120;20.720;2024-03-23T07:32:48;16.98;;;10.13;;
82779;SDS011;72511;45.120;20.720;2024-03-23T07:42:49;19.85;;;10.73;;
82779;SDS011;72511;45.120;20.720;2024-03-23T07:52:51;19.20;;;9.45;;
82779;SDS011;72511;45.120;20.720;2024-03-23T08:02:52;15.80;;;9.23;;
82779;SDS011;72511;45.120;20.720;2024-03-23T08:12:53;18.77;;;9.43;;
82779;SDS011;72511;45.120;20.720;2024-03-23T08:22:56;24.88;;;10.65;;
82779;SDS011;72511;45.120;20.720;2024-03-23T08:32:57;22.65;;;14.43;;
82779;SDS011;72511;45.120;20.720;2024-03-23T08:43:00;15.85;;;9.55;;
82779;SDS011;72511;45.120;20.720;2024-03-23T08:53:01;20.98;;;11.45;;
82779;SDS011;72511;45.120;20.720;2024-03-23T09:03:03;17.27;;;9.90;;
82779;SDS011;72511;45.120;20.720;2024-03-23T09:13:05;40.75;;;16.08;;
82779;SDS011;72511;45.120;20.720;2024-03-23T09:23:07;29.20;;;15.02;;
82779;SDS011;72511;45.120;20.720;2024-03-23T09:33:09;17.60;;;10.90;;
82779;SDS011;72511;45.120;20.720;2024-03-23T09:43:11;21.92;;;10.32;;
82779;SDS011;72511;45.120;20.720;2024-03-23T09:53:13;19.00;;;9.98;;
82779;SDS011;72511;45.120;20.720;2024-03-23T10:03:15;14.15;;;7.70;;
82779;SDS011;72511;45.120;20.720;2024-03-23T10:13:26;19.02;;;7.10;;
82779;SDS011;72511;45.120;20.720;2024-03-23T10:23:31;25.40;;;7.57;;
82779;SDS011;72511;45.120;20.720;2024-03-23T10:33:35;10.27;;;5.10;;
82779;SDS011;72511;45.120;20.720;2024-03-23T10:43:37;12.05;;;7.28;;
82779;SDS011;72511;45.120;20.720;2024-03-23T11:03:51;12.65;;;5.70;;
82779;SDS011;72511;45.120;20.720;2024-03-23T11:13:53;21.85;;;10.75;;
82779;SDS011;72511;45.120;20.720;2024-03-23T11:24:11;11.73;;;5.40;;
82779;SDS011;72511;45.120;20.720;2024-03-23T11:34:17;10.68;;;7.57;;
82779;SDS011;72511;45.120;20.720;2024-03-23T11:44:23;14.95;;;8.57;;
82779;SDS011;72511;45.120;20.720;2024-03-23T11:54:26;11.73;;;4.97;;
82779;SDS011;72511;45.120;20.720;2024-03-23T12:04:28;35.75;;;13.57;;
82779;SDS011;72511;45.120;20.720;2024-03-23T12:14:30;17.85;;;11.38;;
82779;SDS011;72511;45.120;20.720;2024-03-23T12:24:34;5.80;;;4.53;;
82779;SDS011;72511;45.120;20.720;2024-03-23T12:34:36;10.13;;;5.22;;
82779;SDS011;72511;45.120;20.720;2024-03-23T12:44:37;7.72;;;3.00;;
82779;SDS011;72511;45.120;20.720;2024-03-23T12:54:38;3.42;;;2.00;;
82779;SDS011;72511;45.120;20.720;2024-03-23T13:04:40;6.13;;;2.70;;
82779;SDS011;72511;45.120;20.720;2024-03-23T13:14:41;4.50;;;2.20;;
82779;SDS011;72511;45.120;20.720;2024-03-23T13:24:43;4.78;;;2.40;;
82779;SDS011;72511;45.120;20.720;2024-03-23T13:34:44;5.82;;;2.72;;
82779;SDS011;72511;45.120;20.720;2024-03-23T13:44:46;9.82;;;3.70;;
82779;SDS011;72511;45.120;20.720;2024-03-23T13:54:47;6.43;;;3.25;;
82779;SDS011;72511;45.120;20.720;2024-03-23T14:04:48;5.63;;;3.22;;
82779;SDS011;72511;45.120;20.720;2024-03-23T14:14:50;21.48;;;5.88;;
82779;SDS011;72511;45.120;20.720;2024-03-23T14:24:52;14.35;;;5.05;;
82779;SDS011;72511;45.120;20.720;2024-03-23T14:34:54;8.88;;;4.72;;
82779;SDS011;72511;45.120;20.720;2024-03-23T14:44:55;9.10;;;4.78;;
82779;SDS011;72511;45.120;20.720;2024-03-23T14:54:56;4.28;;;2.72;;
82779;SDS011;72511;45.120;20.720;2024-03-23T15:04:58;6.75;;;5.15;;
82779;SDS011;72511;45.120;20.720;2024-03-23T15:15:00;8.75;;;3.85;;
82779;SDS011;72511;45.120;20.720;2024-03-23T15:25:01;6.13;;;3.50;;
82779;SDS011;72511;45.120;20.720;2024-03-23T15:35:04;12.75;;;7.43;;
82779;SDS011;72511;45.120;20.720;2024-03-23T15:45:08;13.05;;;8.07;;
82779;SDS011;72511;45.120;20.720;2024-03-23T15:55:10;17.75;;;9.48;;
82779;SDS011;72511;45.120;20.720;2024-03-23T16:05:11;15.02;;;8.10;;
82779;SDS011;72511;45.120;20.720;2024-03-23T16:15:13;19.63;;;10.82;;
82779;SDS011;72511;45.120;20.720;2024-03-23T16:25:14;37.03;;;20.60;;
82779;SDS011;72511;45.120;20.720;2024-03-23T16:35:16;32.75;;;19.20;;
82779;SDS011;72511;45.120;20.720;2024-03-23T16:45:17;48.30;;;21.95;;
82779;SDS011;72511;45.120;20.720;2024-03-23T16:55:19;77.57;;;31.40;;
82779;SDS011;72511;45.120;20.720;2024-03-23T17:05:20;45.97;;;21.08;;
82779;SDS011;72511;45.120;20.720;2024-03-23T17:15:23;53.08;;;24.70;;
82779;SDS011;72511;45.120;20.720;2024-03-23T17:25:25;108.55;;;50.03;;
82779;SDS011;72511;45.120;20.720;2024-03-23T17:35:27;196.30;;;89.50;;
82779;SDS011;72511;45.120;20.720;2024-03-23T17:45:28;116.88;;;53.35;;
82779;SDS011;72511;45.120;20.720;2024-03-23T17:55:30;65.88;;;28.35;;
82779;SDS011;72511;45.120;20.720;2024-03-23T18:05:31;58.40;;;26.88;;
82779;SDS011;72511;45.120;20.720;2024-03-23T18:15:35;64.55;;;31.58;;
82779;SDS011;72511;45.120;20.720;2024-03-23T18:25:36;102.10;;;47.95;;
82779;SDS011;72511;45.120;20.720;2024-03-23T18:35:37;70.97;;;33.83;;
82779;SDS011;72511;45.120;20.720;2024-03-23T18:45:45;49.17;;;23.55;;
82779;SDS011;72511;45.120;20.720;2024-03-23T18:55:54;37.75;;;15.77;;
82779;SDS011;72511;45.120;20.720;2024-03-23T19:05:57;27.48;;;12.00;;
82779;SDS011;72511;45.120;20.720;2024-03-23T19:16:00;41.53;;;20.08;;
82779;SDS011;72511;45.120;20.720;2024-03-23T19:26:02;25.40;;;12.73;;
82779;SDS011;72511;45.120;20.720;2024-03-23T19:36:04;44.10;;;22.02;;
82779;SDS011;72511;45.120;20.720;2024-03-23T19:46:06;41.03;;;20.33;;
82779;SDS011;72511;45.120;20.720;2024-03-23T19:56:07;15.75;;;9.00;;
82779;SDS011;72511;45.120;20.720;2024-03-23T20:06:10;16.23;;;10.10;;
82779;SDS011;72511;45.120;20.720;2024-03-23T20:16:13;30.52;;;17.00;;
82779;SDS011;72511;45.120;20.720;2024-03-23T20:26:14;14.50;;;8.57;;
82779;SDS011;72511;45.120;20.720;2024-03-23T20:36:16;18.58;;;9.38;;
82779;SDS011;72511;45.120;20.720;2024-03-23T20:46:20;19.52;;;9.73;;
82779;SDS011;72511;45.120;20.720;2024-03-23T20:56:21;107.18;;;36.42;;
82779;SDS011;72511;45.120;20.720;2024-03-23T21:06:22;66.40;;;25.95;;
82779;SDS011;72511;45.120;20.720;2024-03-23T21:16:25;31.85;;;14.70;;
82779;SDS011;72511;45.120;20.720;2024-03-23T21:26:27;24.80;;;15.10;;
82779;SDS011;72511;45.120;20.720;2024-03-23T21:36:28;361.42;;;128.98;;
82779;SDS011;72511;45.120;20.720;2024-03-23T21:46:30;482.52;;;175.02;;
82779;SDS011;72511;45.120;20.720;2024-03-23T21:56:33;216.35;;;76.70;;
82779;SDS011;72511;45.120;20.720;2024-03-23T22:06:34;54.22;;;21.55;;
82779;SDS011;72511;45.120;20.720;2024-03-23T22:16:35;16.02;;;10.10;;
82779;SDS011;72511;45.120;20.720;2024-03-23T22:26:37;13.60;;;7.78;;
82779;SDS011;72511;45.120;20.720;2024-03-23T22:36:38;17.60;;;9.70;;
82779;SDS011;72511;45.120;20.720;2024-03-23T22:46:42;19.65;;;9.68;;
82779;SDS011;72511;45.120;20.720;2024-03-23T22:56:45;6.13;;;2.05;;
82779;SDS011;72511;45.120;20.720;2024-03-23T23:06:47;12.73;;;2.55;;
82779;SDS011;72511;45.120;20.720;2024-03-23T23:16:48;4.97;;;1.38;;
82779;SDS011;72511;45.120;20.720;2024-03-23T23:26:50;13.52;;;1.70;;
82779;SDS011;72511;45.120;20.720;2024-03-23T23:36:51;5.93;;;1.10;;
82779;SDS011;72511;45.120;20.720;2024-03-23T23:46:53;3.72;;;0.98;;
82779;SDS011;72511;45.120;20.720;2024-03-23T23:56:54;7.78;;;2.25;;
